sensor_id;sensor_type;location;lat;lon;timestamp;temperature;humidity
17152;DHT22;8691;50.828;4.700;2023-02-28T00:00:22;-0.80;99.90
17152;DHT22;8691;50.828;4.700;2023-02-28T00:02:50;-0.70;99.90
17152;DHT22;8691;50.828;4.700;2023-02-28T00:05:18;-0.70;99.90
17152;DHT22;8691;50.828;4.700;2023-02-28T00:07:44;-0.60;99.90
17152;DHT22;8691;50.828;4.700;2023-02-28T00:10:13;-0.50;99.90
17152;DHT22;8691;50.828;4.700;2023-02-28T00:12:38;-0.50;99.90
17152;DHT22;8691;50.828;4.700;2023-02-28T00:15:06;-0.50;99.90
17152;DHT22;8691;50.828;4.700;2023-02-28T00:17:32;-0.50;99.90
17152;DHT22;8691;50.828;4.700;2023-02-28T00:19:59;-0.50;99.90
17152;DHT22;8691;50.828;4.700;2023-02-28T00:22:28;-0.60;99.90
17152;DHT22;8691;50.828;4.700;2023-02-28T00:24:55;-0.60;99.90
17152;DHT22;8691;50.828;4.700;2023-02-28T00:27:22;-0.60;99.90
17152;DHT22;8691;50.828;4.700;2023-02-28T00:29:49;-0.60;99.90
17152;DHT22;8691;50.828;4.700;2023-02-28T00:32:16;-0.60;99.90
17152;DHT22;8691;50.828;4.700;2023-02-28T00:34:43;-0.60;99.90
17152;DHT22;8691;50.828;4.700;2023-02-28T00:37:10;-0.60;99.90
17152;DHT22;8691;50.828;4.700;2023-02-28T00:39:36;-0.50;99.90
17152;DHT22;8691;50.828;4.700;2023-02-28T00:42:04;-0.50;99.90
17152;DHT22;8691;50.828;4.700;2023-02-28T00:44:31;-0.50;99.90
17152;DHT22;8691;50.828;4.700;2023-02-28T00:46:58;-0.50;99.90
17152;DHT22;8691;50.828;4.700;2023-02-28T00:49:25;-0.60;99.90
17152;DHT22;8691;50.828;4.700;2023-02-28T00:51:52;-0.60;99.90
17152;DHT22;8691;50.828;4.700;2023-02-28T00:54:19;-0.60;99.90
17152;DHT22;8691;50.828;4.700;2023-02-28T00:56:45;-0.60;99.90
17152;DHT22;8691;50.828;4.700;2023-02-28T00:59:13;-0.70;99.90
17152;DHT22;8691;50.828;4.700;2023-02-28T01:01:40;-0.70;99.90
17152;DHT22;8691;50.828;4.700;2023-02-28T01:04:07;-0.70;99.90
17152;DHT22;8691;50.828;4.700;2023-02-28T01:06:33;-0.80;99.90
17152;DHT22;8691;50.828;4.700;2023-02-28T01:09:00;-0.80;99.90
17152;DHT22;8691;50.828;4.700;2023-02-28T01:11:27;-0.80;99.90
17152;DHT22;8691;50.828;4.700;2023-02-28T01:13:54;-0.80;99.90
17152;DHT22;8691;50.828;4.700;2023-02-28T01:16:21;-0.90;99.90
17152;DHT22;8691;50.828;4.700;2023-02-28T01:18:47;-0.90;99.90
17152;DHT22;8691;50.828;4.700;2023-02-28T01:21:15;-0.90;99.90
17152;DHT22;8691;50.828;4.700;2023-02-28T01:23:41;-1.00;99.90
17152;DHT22;8691;50.828;4.700;2023-02-28T01:26:19;-1.20;99.90
17152;DHT22;8691;50.828;4.700;2023-02-28T01:28:44;-1.20;99.90
17152;DHT22;8691;50.828;4.700;2023-02-28T01:31:11;-1.20;99.90
17152;DHT22;8691;50.828;4.700;2023-02-28T01:33:38;-1.30;99.90
17152;DHT22;8691;50.828;4.700;2023-02-28T01:36:06;-1.30;99.90
17152;DHT22;8691;50.828;4.700;2023-02-28T01:38:32;-1.30;99.90
17152;DHT22;8691;50.828;4.700;2023-02-28T01:40:59;-1.30;99.90
17152;DHT22;8691;50.828;4.700;2023-02-28T01:43:29;-1.30;99.90
17152;DHT22;8691;50.828;4.700;2023-02-28T01:45:55;-1.30;99.90
17152;DHT22;8691;50.828;4.700;2023-02-28T01:48:26;-1.30;99.90
17152;DHT22;8691;50.828;4.700;2023-02-28T01:50:52;-1.30;99.90
17152;DHT22;8691;50.828;4.700;2023-02-28T01:53:20;-1.30;99.90
17152;DHT22;8691;50.828;4.700;2023-02-28T01:55:46;-1.30;99.90
17152;DHT22;8691;50.828;4.700;2023-02-28T01:58:12;-1.30;99.90
17152;DHT22;8691;50.828;4.700;2023-02-28T02:00:40;-1.30;99.90
17152;DHT22;8691;50.828;4.700;2023-02-28T02:03:08;-1.30;99.90
17152;DHT22;8691;50.828;4.700;2023-02-28T02:05:34;-1.30;99.90
17152;DHT22;8691;50.828;4.700;2023-02-28T02:08:03;-1.40;99.90
17152;DHT22;8691;50.828;4.700;2023-02-28T02:10:41;-1.40;99.90
17152;DHT22;8691;50.828;4.700;2023-02-28T02:13:25;-1.40;99.90
17152;DHT22;8691;50.828;4.700;2023-02-28T02:16:09;-1.40;99.90
17152;DHT22;8691;50.828;4.700;2023-02-28T02:18:44;-1.40;99.90
17152;DHT22;8691;50.828;4.700;2023-02-28T02:21:52;-1.30;99.90
17152;DHT22;8691;50.828;4.700;2023-02-28T02:32:53;-1.40;99.90
17152;DHT22;8691;50.828;4.700;2023-02-28T02:35:24;-1.50;99.90
17152;DHT22;8691;50.828;4.700;2023-02-28T02:37:52;-1.50;99.90
17152;DHT22;8691;50.828;4.700;2023-02-28T02:40:23;-1.50;99.90
17152;DHT22;8691;50.828;4.700;2023-02-28T02:42:57;-1.50;99.90
17152;DHT22;8691;50.828;4.700;2023-02-28T02:45:25;-1.50;99.90
17152;DHT22;8691;50.828;4.700;2023-02-28T02:47:52;-1.50;99.90
17152;DHT22;8691;50.828;4.700;2023-02-28T02:50:26;-1.50;99.90
17152;DHT22;8691;50.828;4.700;2023-02-28T02:52:52;-1.50;99.90
17152;DHT22;8691;50.828;4.700;2023-02-28T02:55:18;-1.50;99.90
17152;DHT22;8691;50.828;4.700;2023-02-28T02:57:56;-1.50;99.90
17152;DHT22;8691;50.828;4.700;2023-02-28T03:00:18;-1.50;99.90
17152;DHT22;8691;50.828;4.700;2023-02-28T03:02:45;-1.60;99.90
17152;DHT22;8691;50.828;4.700;2023-02-28T03:05:17;-1.60;99.90
17152;DHT22;8691;50.828;4.700;2023-02-28T03:07:42;-1.60;99.90
17152;DHT22;8691;50.828;4.700;2023-02-28T03:10:33;-1.60;99.90
17152;DHT22;8691;50.828;4.700;2023-02-28T03:18:38;-1.60;99.90
17152;DHT22;8691;50.828;4.700;2023-02-28T03:20:58;-1.60;99.90
17152;DHT22;8691;50.828;4.700;2023-02-28T03:23:21;-1.70;99.90
17152;DHT22;8691;50.828;4.700;2023-02-28T03:26:08;-1.80;99.90
17152;DHT22;8691;50.828;4.700;2023-02-28T03:28:52;-1.80;99.90
17152;DHT22;8691;50.828;4.700;2023-02-28T03:31:21;-1.80;99.90
17152;DHT22;8691;50.828;4.700;2023-02-28T03:36:29;-2.00;99.90
17152;DHT22;8691;50.828;4.700;2023-02-28T03:38:59;-2.20;99.90
17152;DHT22;8691;50.828;4.700;2023-02-28T03:41:32;-2.10;99.90
17152;DHT22;8691;50.828;4.700;2023-02-28T03:44:10;-2.10;99.90
17152;DHT22;8691;50.828;4.700;2023-02-28T03:46:27;-2.10;99.90
17152;DHT22;8691;50.828;4.700;2023-02-28T03:48:57;-2.10;99.90
17152;DHT22;8691;50.828;4.700;2023-02-28T03:51:22;-2.10;99.90
17152;DHT22;8691;50.828;4.700;2023-02-28T03:53:50;-2.10;99.90
17152;DHT22;8691;50.828;4.700;2023-02-28T03:56:27;-2.10;99.90
17152;DHT22;8691;50.828;4.700;2023-02-28T04:01:38;-2.20;99.90
17152;DHT22;8691;50.828;4.700;2023-02-28T04:04:03;-2.20;99.90
17152;DHT22;8691;50.828;4.700;2023-02-28T04:06:30;-2.30;99.90
17152;DHT22;8691;50.828;4.700;2023-02-28T04:08:57;-2.30;99.90
17152;DHT22;8691;50.828;4.700;2023-02-28T04:11:27;-2.20;99.90
17152;DHT22;8691;50.828;4.700;2023-02-28T04:13:51;-2.10;99.90
17152;DHT22;8691;50.828;4.700;2023-02-28T04:16:17;-1.90;99.90
17152;DHT22;8691;50.828;4.700;2023-02-28T04:18:44;-1.80;99.90
17152;DHT22;8691;50.828;4.700;2023-02-28T04:21:11;-1.70;99.90
17152;DHT22;8691;50.828;4.700;2023-02-28T04:23:38;-1.70;99.90
17152;DHT22;8691;50.828;4.700;2023-02-28T04:26:05;-1.70;99.90
17152;DHT22;8691;50.828;4.700;2023-02-28T04:28:32;-1.70;99.90
17152;DHT22;8691;50.828;4.700;2023-02-28T04:31:03;-1.70;99.90
17152;DHT22;8691;50.828;4.700;2023-02-28T04:33:26;-1.60;99.90
17152;DHT22;8691;50.828;4.700;2023-02-28T04:36:06;-1.60;99.90
17152;DHT22;8691;50.828;4.700;2023-02-28T04:38:33;-1.50;99.90
17152;DHT22;8691;50.828;4.700;2023-02-28T04:41:00;-1.50;99.90
17152;DHT22;8691;50.828;4.700;2023-02-28T04:43:27;-1.50;99.90
17152;DHT22;8691;50.828;4.700;2023-02-28T04:45:55;-1.50;99.90
17152;DHT22;8691;50.828;4.700;2023-02-28T04:48:22;-1.50;99.90
17152;DHT22;8691;50.828;4.700;2023-02-28T04:50:48;-1.50;99.90
17152;DHT22;8691;50.828;4.700;2023-02-28T04:53:15;-1.50;99.90
17152;DHT22;8691;50.828;4.700;2023-02-28T04:55:42;-1.50;99.90
17152;DHT22;8691;50.828;4.700;2023-02-28T04:58:09;-1.50;99.90
17152;DHT22;8691;50.828;4.700;2023-02-28T05:00:37;-1.50;99.90
17152;DHT22;8691;50.828;4.700;2023-02-28T05:03:04;-1.40;99.90
17152;DHT22;8691;50.828;4.700;2023-02-28T05:05:31;-1.40;99.90
17152;DHT22;8691;50.828;4.700;2023-02-28T05:07:58;-1.40;99.90
17152;DHT22;8691;50.828;4.700;2023-02-28T05:10:25;-1.30;99.90
17152;DHT22;8691;50.828;4.700;2023-02-28T05:12:52;-1.30;99.90
17152;DHT22;8691;50.828;4.700;2023-02-28T05:15:19;-1.30;99.90
17152;DHT22;8691;50.828;4.700;2023-02-28T05:17:46;-1.30;99.90
17152;DHT22;8691;50.828;4.700;2023-02-28T05:20:13;-1.30;99.90
17152;DHT22;8691;50.828;4.700;2023-02-28T05:22:40;-1.30;99.90
17152;DHT22;8691;50.828;4.700;2023-02-28T05:25:08;-1.30;99.90
17152;DHT22;8691;50.828;4.700;2023-02-28T05:27:35;-1.30;99.90
17152;DHT22;8691;50.828;4.700;2023-02-28T05:30:02;-1.30;99.90
17152;DHT22;8691;50.828;4.700;2023-02-28T05:32:30;-1.30;99.90
17152;DHT22;8691;50.828;4.700;2023-02-28T05:34:57;-1.30;99.90
17152;DHT22;8691;50.828;4.700;2023-02-28T05:37:25;-1.30;99.90
17152;DHT22;8691;50.828;4.700;2023-02-28T05:39:52;-1.30;99.90
17152;DHT22;8691;50.828;4.700;2023-02-28T05:42:19;-1.40;99.90
17152;DHT22;8691;50.828;4.700;2023-02-28T05:44:46;-1.40;99.90
17152;DHT22;8691;50.828;4.700;2023-02-28T05:47:13;-1.50;99.90
17152;DHT22;8691;50.828;4.700;2023-02-28T05:49:39;-1.50;99.90
17152;DHT22;8691;50.828;4.700;2023-02-28T05:52:06;-1.60;99.90
17152;DHT22;8691;50.828;4.700;2023-02-28T05:54:33;-1.80;99.90
17152;DHT22;8691;50.828;4.700;2023-02-28T05:57:01;-1.80;99.90
17152;DHT22;8691;50.828;4.700;2023-02-28T05:59:28;-1.80;99.90
17152;DHT22;8691;50.828;4.700;2023-02-28T06:01:55;-1.80;99.90
17152;DHT22;8691;50.828;4.700;2023-02-28T06:04:22;-1.80;99.90
17152;DHT22;8691;50.828;4.700;2023-02-28T06:06:49;-1.80;99.90
17152;DHT22;8691;50.828;4.700;2023-02-28T06:09:16;-1.80;99.90
17152;DHT22;8691;50.828;4.700;2023-02-28T06:11:43;-1.80;99.90
17152;DHT22;8691;50.828;4.700;2023-02-28T06:14:14;-1.80;99.90
17152;DHT22;8691;50.828;4.700;2023-02-28T06:16:39;-1.70;99.90
17152;DHT22;8691;50.828;4.700;2023-02-28T06:19:06;-1.70;99.90
17152;DHT22;8691;50.828;4.700;2023-02-28T06:21:33;-1.70;99.90
17152;DHT22;8691;50.828;4.700;2023-02-28T06:24:00;-1.60;99.90
17152;DHT22;8691;50.828;4.700;2023-02-28T06:26:27;-1.60;99.90
17152;DHT22;8691;50.828;4.700;2023-02-28T06:28:54;-1.60;99.90
17152;DHT22;8691;50.828;4.700;2023-02-28T06:31:21;-1.60;99.90
17152;DHT22;8691;50.828;4.700;2023-02-28T06:33:47;-1.60;99.90
17152;DHT22;8691;50.828;4.700;2023-02-28T06:36:14;-1.60;99.90
17152;DHT22;8691;50.828;4.700;2023-02-28T06:38:41;-1.60;99.90
17152;DHT22;8691;50.828;4.700;2023-02-28T06:41:08;-1.50;99.90
17152;DHT22;8691;50.828;4.700;2023-02-28T06:43:37;-1.40;99.90
17152;DHT22;8691;50.828;4.700;2023-02-28T06:46:03;-1.40;99.90
17152;DHT22;8691;50.828;4.700;2023-02-28T06:48:29;-1.40;99.90
17152;DHT22;8691;50.828;4.700;2023-02-28T06:51:06;-1.40;99.90
17152;DHT22;8691;50.828;4.700;2023-02-28T06:53:32;-1.40;99.90
17152;DHT22;8691;50.828;4.700;2023-02-28T06:55:59;-1.40;99.90
17152;DHT22;8691;50.828;4.700;2023-02-28T06:58:26;-1.40;99.90
17152;DHT22;8691;50.828;4.700;2023-02-28T07:00:53;-1.40;99.90
17152;DHT22;8691;50.828;4.700;2023-02-28T07:03:20;-1.30;99.90
17152;DHT22;8691;50.828;4.700;2023-02-28T07:05:47;-1.30;99.90
17152;DHT22;8691;50.828;4.700;2023-02-28T07:08:14;-1.30;99.90
17152;DHT22;8691;50.828;4.700;2023-02-28T07:10:41;-1.20;99.90
17152;DHT22;8691;50.828;4.700;2023-02-28T07:13:09;-1.20;99.90
17152;DHT22;8691;50.828;4.700;2023-02-28T07:15:37;-1.20;99.90
17152;DHT22;8691;50.828;4.700;2023-02-28T07:18:03;-1.10;99.90
17152;DHT22;8691;50.828;4.700;2023-02-28T07:20:30;-0.90;99.90
17152;DHT22;8691;50.828;4.700;2023-02-28T07:22:58;-0.80;99.90
17152;DHT22;8691;50.828;4.700;2023-02-28T07:25:28;-0.90;99.90
17152;DHT22;8691;50.828;4.700;2023-02-28T07:27:55;-0.80;99.90
17152;DHT22;8691;50.828;4.700;2023-02-28T07:30:21;-0.80;99.90
17152;DHT22;8691;50.828;4.700;2023-02-28T07:32:49;-0.70;99.90
17152;DHT22;8691;50.828;4.700;2023-02-28T07:35:15;-0.50;99.90
17152;DHT22;8691;50.828;4.700;2023-02-28T07:37:42;-0.40;99.90
17152;DHT22;8691;50.828;4.700;2023-02-28T07:40:10;-0.40;99.90
17152;DHT22;8691;50.828;4.700;2023-02-28T07:42:37;-0.30;99.90
17152;DHT22;8691;50.828;4.700;2023-02-28T07:45:05;-0.10;99.90
17152;DHT22;8691;50.828;4.700;2023-02-28T07:47:32;-0.10;99.90
17152;DHT22;8691;50.828;4.700;2023-02-28T07:49:59;0.00;99.90
17152;DHT22;8691;50.828;4.700;2023-02-28T07:52:25;0.40;99.90
17152;DHT22;8691;50.828;4.700;2023-02-28T07:54:52;0.50;99.90
17152;DHT22;8691;50.828;4.700;2023-02-28T07:57:20;1.40;99.90
17152;DHT22;8691;50.828;4.700;2023-02-28T07:59:47;3.10;99.90
17152;DHT22;8691;50.828;4.700;2023-02-28T08:02:15;3.10;99.90
17152;DHT22;8691;50.828;4.700;2023-02-28T08:04:41;4.90;99.90
17152;DHT22;8691;50.828;4.700;2023-02-28T08:07:08;5.40;99.90
17152;DHT22;8691;50.828;4.700;2023-02-28T08:09:35;6.50;99.90
17152;DHT22;8691;50.828;4.700;2023-02-28T08:12:02;6.50;99.90
17152;DHT22;8691;50.828;4.700;2023-02-28T08:14:29;7.30;99.90
17152;DHT22;8691;50.828;4.700;2023-02-28T08:16:56;7.90;98.60
17152;DHT22;8691;50.828;4.700;2023-02-28T08:19:23;9.40;94.50
17152;DHT22;8691;50.828;4.700;2023-02-28T08:21:50;9.60;93.50
17152;DHT22;8691;50.828;4.700;2023-02-28T08:24:17;9.60;91.20
17152;DHT22;8691;50.828;4.700;2023-02-28T08:26:44;9.50;91.20
17152;DHT22;8691;50.828;4.700;2023-02-28T08:29:11;8.20;93.80
17152;DHT22;8691;50.828;4.700;2023-02-28T08:31:38;9.00;93.70
17152;DHT22;8691;50.828;4.700;2023-02-28T08:34:08;9.70;92.60
17152;DHT22;8691;50.828;4.700;2023-02-28T08:36:34;10.40;88.60
17152;DHT22;8691;50.828;4.700;2023-02-28T08:39:02;10.40;90.20
17152;DHT22;8691;50.828;4.700;2023-02-28T08:41:28;10.40;90.10
17152;DHT22;8691;50.828;4.700;2023-02-28T08:43:55;10.60;89.00
17152;DHT22;8691;50.828;4.700;2023-02-28T08:46:22;10.60;86.40
17152;DHT22;8691;50.828;4.700;2023-02-28T08:48:52;10.20;87.20
17152;DHT22;8691;50.828;4.700;2023-02-28T08:51:16;10.40;85.90
17152;DHT22;8691;50.828;4.700;2023-02-28T08:53:43;11.30;83.10
17152;DHT22;8691;50.828;4.700;2023-02-28T08:56:11;11.20;81.90
17152;DHT22;8691;50.828;4.700;2023-02-28T08:58:36;10.60;86.20
17152;DHT22;8691;50.828;4.700;2023-02-28T09:01:10;10.50;87.50
17152;DHT22;8691;50.828;4.700;2023-02-28T09:03:37;11.40;81.60
17152;DHT22;8691;50.828;4.700;2023-02-28T09:06:05;11.10;78.40
17152;DHT22;8691;50.828;4.700;2023-02-28T09:08:32;11.00;78.40
17152;DHT22;8691;50.828;4.700;2023-02-28T09:10:59;11.00;81.50
17152;DHT22;8691;50.828;4.700;2023-02-28T09:13:26;12.70;74.30
17152;DHT22;8691;50.828;4.700;2023-02-28T09:15:53;10.70;77.20
17152;DHT22;8691;50.828;4.700;2023-02-28T09:18:19;10.90;80.50
17152;DHT22;8691;50.828;4.700;2023-02-28T09:20:46;10.60;80.40
17152;DHT22;8691;50.828;4.700;2023-02-28T09:23:13;10.40;78.50
17152;DHT22;8691;50.828;4.700;2023-02-28T09:25:47;9.70;82.80
17152;DHT22;8691;50.828;4.700;2023-02-28T09:28:13;9.70;82.40
17152;DHT22;8691;50.828;4.700;2023-02-28T09:30:39;10.10;80.80
17152;DHT22;8691;50.828;4.700;2023-02-28T09:33:06;10.30;80.40
17152;DHT22;8691;50.828;4.700;2023-02-28T09:35:33;10.90;77.00
17152;DHT22;8691;50.828;4.700;2023-02-28T09:38:01;9.80;78.70
17152;DHT22;8691;50.828;4.700;2023-02-28T09:40:28;9.80;78.50
17152;DHT22;8691;50.828;4.700;2023-02-28T09:42:55;10.90;77.10
17152;DHT22;8691;50.828;4.700;2023-02-28T09:45:24;10.20;73.10
17152;DHT22;8691;50.828;4.700;2023-02-28T09:47:49;10.10;72.30
17152;DHT22;8691;50.828;4.700;2023-02-28T09:50:30;10.60;72.40
17152;DHT22;8691;50.828;4.700;2023-02-28T09:52:49;10.60;71.60
17152;DHT22;8691;50.828;4.700;2023-02-28T09:55:25;10.60;71.20
17152;DHT22;8691;50.828;4.700;2023-02-28T09:57:48;10.60;71.50
17152;DHT22;8691;50.828;4.700;2023-02-28T10:00:22;11.20;69.30
17152;DHT22;8691;50.828;4.700;2023-02-28T10:02:53;12.10;67.10
17152;DHT22;8691;50.828;4.700;2023-02-28T10:05:32;11.20;63.20
17152;DHT22;8691;50.828;4.700;2023-02-28T10:08:11;9.80;65.40
17152;DHT22;8691;50.828;4.700;2023-02-28T10:10:46;8.90;71.90
17152;DHT22;8691;50.828;4.700;2023-02-28T10:13:34;9.10;70.50
17152;DHT22;8691;50.828;4.700;2023-02-28T10:16:08;8.90;75.40
17152;DHT22;8691;50.828;4.700;2023-02-28T10:18:51;10.60;69.50
17152;DHT22;8691;50.828;4.700;2023-02-28T10:21:26;8.70;69.90
17152;DHT22;8691;50.828;4.700;2023-02-28T10:23:49;8.80;73.70
17152;DHT22;8691;50.828;4.700;2023-02-28T10:26:15;9.70;70.40
17152;DHT22;8691;50.828;4.700;2023-02-28T10:28:46;9.50;72.20
17152;DHT22;8691;50.828;4.700;2023-02-28T10:31:14;9.50;72.20
17152;DHT22;8691;50.828;4.700;2023-02-28T10:33:39;9.00;71.60
17152;DHT22;8691;50.828;4.700;2023-02-28T10:36:08;8.00;74.40
17152;DHT22;8691;50.828;4.700;2023-02-28T10:38:35;9.60;71.90
17152;DHT22;8691;50.828;4.700;2023-02-28T10:41:07;9.60;71.80
17152;DHT22;8691;50.828;4.700;2023-02-28T10:43:34;10.30;69.60
17152;DHT22;8691;50.828;4.700;2023-02-28T10:48:59;8.90;70.30
17152;DHT22;8691;50.828;4.700;2023-02-28T10:51:18;8.90;69.50
17152;DHT22;8691;50.828;4.700;2023-02-28T10:53:50;8.30;72.90
17152;DHT22;8691;50.828;4.700;2023-02-28T10:56:20;9.00;71.30
17152;DHT22;8691;50.828;4.700;2023-02-28T10:58:48;9.50;70.70
17152;DHT22;8691;50.828;4.700;2023-02-28T11:01:23;9.40;69.60
17152;DHT22;8691;50.828;4.700;2023-02-28T11:03:49;8.80;71.60
17152;DHT22;8691;50.828;4.700;2023-02-28T11:06:22;8.60;71.80
17152;DHT22;8691;50.828;4.700;2023-02-28T11:08:47;7.90;74.50
17152;DHT22;8691;50.828;4.700;2023-02-28T11:11:13;7.40;76.70
17152;DHT22;8691;50.828;4.700;2023-02-28T11:13:40;7.00;76.40
17152;DHT22;8691;50.828;4.700;2023-02-28T11:16:07;6.20;79.40
17152;DHT22;8691;50.828;4.700;2023-02-28T11:18:39;6.60;81.40
17152;DHT22;8691;50.828;4.700;2023-02-28T11:21:03;6.60;78.00
17152;DHT22;8691;50.828;4.700;2023-02-28T11:23:30;6.30;74.10
17152;DHT22;8691;50.828;4.700;2023-02-28T11:25:58;6.30;74.60
17152;DHT22;8691;50.828;4.700;2023-02-28T11:28:30;6.10;73.90
17152;DHT22;8691;50.828;4.700;2023-02-28T11:31:01;6.00;73.90
17152;DHT22;8691;50.828;4.700;2023-02-28T11:33:30;5.90;73.90
17152;DHT22;8691;50.828;4.700;2023-02-28T11:36:04;5.70;74.70
17152;DHT22;8691;50.828;4.700;2023-02-28T11:38:29;5.90;74.60
17152;DHT22;8691;50.828;4.700;2023-02-28T11:51:24;5.80;77.10
17152;DHT22;8691;50.828;4.700;2023-02-28T11:54:07;5.70;79.60
17152;DHT22;8691;50.828;4.700;2023-02-28T11:56:32;5.70;76.70
17152;DHT22;8691;50.828;4.700;2023-02-28T11:59:10;5.50;76.90
17152;DHT22;8691;50.828;4.700;2023-02-28T12:01:45;5.70;76.10
17152;DHT22;8691;50.828;4.700;2023-02-28T12:07:01;6.00;76.60
17152;DHT22;8691;50.828;4.700;2023-02-28T12:15:13;6.40;75.50
17152;DHT22;8691;50.828;4.700;2023-02-28T12:17:42;6.50;76.10
17152;DHT22;8691;50.828;4.700;2023-02-28T12:22:50;5.60;77.10
17152;DHT22;8691;50.828;4.700;2023-02-28T12:28:03;5.80;77.00
17152;DHT22;8691;50.828;4.700;2023-02-28T12:30:36;5.80;77.20
17152;DHT22;8691;50.828;4.700;2023-02-28T12:33:06;5.80;76.30
17152;DHT22;8691;50.828;4.700;2023-02-28T12:35:47;5.70;76.00
17152;DHT22;8691;50.828;4.700;2023-02-28T12:38:12;5.80;75.10
17152;DHT22;8691;50.828;4.700;2023-02-28T12:40:42;5.80;75.20
17152;DHT22;8691;50.828;4.700;2023-02-28T12:43:08;5.80;75.20
17152;DHT22;8691;50.828;4.700;2023-02-28T12:45:49;5.90;75.50
17152;DHT22;8691;50.828;4.700;2023-02-28T12:48:16;5.70;75.10
17152;DHT22;8691;50.828;4.700;2023-02-28T12:50:41;5.70;75.80
17152;DHT22;8691;50.828;4.700;2023-02-28T12:58:36;5.80;75.40
17152;DHT22;8691;50.828;4.700;2023-02-28T13:04:28;6.30;74.30
17152;DHT22;8691;50.828;4.700;2023-02-28T13:09:31;5.60;75.50
17152;DHT22;8691;50.828;4.700;2023-02-28T13:11:58;5.60;75.20
17152;DHT22;8691;50.828;4.700;2023-02-28T13:14:35;5.50;75.60
17152;DHT22;8691;50.828;4.700;2023-02-28T13:19:56;5.90;75.70
17152;DHT22;8691;50.828;4.700;2023-02-28T13:22:01;5.90;76.30
17152;DHT22;8691;50.828;4.700;2023-02-28T13:24:44;6.20;75.30
17152;DHT22;8691;50.828;4.700;2023-02-28T13:27:11;6.00;75.20
17152;DHT22;8691;50.828;4.700;2023-02-28T13:29:38;6.00;75.20
17152;DHT22;8691;50.828;4.700;2023-02-28T13:47:49;6.00;74.40
17152;DHT22;8691;50.828;4.700;2023-02-28T14:01:08;6.40;75.70
17152;DHT22;8691;50.828;4.700;2023-02-28T14:09:02;5.90;75.40
17152;DHT22;8691;50.828;4.700;2023-02-28T14:11:34;6.00;75.80
17152;DHT22;8691;50.828;4.700;2023-02-28T14:14:01;5.60;77.20
17152;DHT22;8691;50.828;4.700;2023-02-28T14:16:35;5.60;77.10
17152;DHT22;8691;50.828;4.700;2023-02-28T14:19:01;5.30;78.00
17152;DHT22;8691;50.828;4.700;2023-02-28T14:21:28;5.20;77.90
17152;DHT22;8691;50.828;4.700;2023-02-28T14:29:42;5.50;78.30
17152;DHT22;8691;50.828;4.700;2023-02-28T14:34:53;5.60;78.00
17152;DHT22;8691;50.828;4.700;2023-02-28T14:37:20;5.80;78.30
17152;DHT22;8691;50.828;4.700;2023-02-28T14:39:42;5.80;79.00
17152;DHT22;8691;50.828;4.700;2023-02-28T14:42:29;5.80;76.70
17152;DHT22;8691;50.828;4.700;2023-02-28T14:44:55;6.00;75.10
17152;DHT22;8691;50.828;4.700;2023-02-28T14:47:21;5.60;76.40
17152;DHT22;8691;50.828;4.700;2023-02-28T14:49:48;5.40;77.30
17152;DHT22;8691;50.828;4.700;2023-02-28T14:52:25;5.60;76.80
17152;DHT22;8691;50.828;4.700;2023-02-28T14:54:55;5.60;77.70
17152;DHT22;8691;50.828;4.700;2023-02-28T14:57:25;5.60;78.40
17152;DHT22;8691;50.828;4.700;2023-02-28T15:00:01;5.60;78.80
17152;DHT22;8691;50.828;4.700;2023-02-28T15:02:24;5.70;77.60
17152;DHT22;8691;50.828;4.700;2023-02-28T15:04:56;5.50;78.50
17152;DHT22;8691;50.828;4.700;2023-02-28T15:07:20;5.70;77.70
17152;DHT22;8691;50.828;4.700;2023-02-28T15:09:48;6.00;77.70
17152;DHT22;8691;50.828;4.700;2023-02-28T15:12:14;6.00;77.70
17152;DHT22;8691;50.828;4.700;2023-02-28T15:14:42;5.90;78.40
17152;DHT22;8691;50.828;4.700;2023-02-28T15:17:22;5.90;79.90
17152;DHT22;8691;50.828;4.700;2023-02-28T15:19:37;5.90;79.90
17152;DHT22;8691;50.828;4.700;2023-02-28T15:22:08;5.80;79.60
17152;DHT22;8691;50.828;4.700;2023-02-28T15:24:39;5.90;79.60
17152;DHT22;8691;50.828;4.700;2023-02-28T15:27:10;6.10;78.10
17152;DHT22;8691;50.828;4.700;2023-02-28T15:29:33;5.90;79.40
17152;DHT22;8691;50.828;4.700;2023-02-28T15:32:04;6.20;80.20
17152;DHT22;8691;50.828;4.700;2023-02-28T15:34:41;6.20;79.70
17152;DHT22;8691;50.828;4.700;2023-02-28T15:37:27;6.00;79.30
17152;DHT22;8691;50.828;4.700;2023-02-28T15:39:53;6.20;79.60
17152;DHT22;8691;50.828;4.700;2023-02-28T15:42:20;6.00;79.40
17152;DHT22;8691;50.828;4.700;2023-02-28T15:44:47;6.00;79.50
17152;DHT22;8691;50.828;4.700;2023-02-28T15:47:22;5.90;79.60
17152;DHT22;8691;50.828;4.700;2023-02-28T15:49:52;5.70;80.60
17152;DHT22;8691;50.828;4.700;2023-02-28T15:52:24;5.90;80.90
17152;DHT22;8691;50.828;4.700;2023-02-28T15:54:48;5.90;81.30
17152;DHT22;8691;50.828;4.700;2023-02-28T15:57:22;5.70;82.20
17152;DHT22;8691;50.828;4.700;2023-02-28T15:59:54;5.60;82.30
17152;DHT22;8691;50.828;4.700;2023-02-28T16:02:21;5.60;82.80
17152;DHT22;8691;50.828;4.700;2023-02-28T16:05:00;5.70;81.90
17152;DHT22;8691;50.828;4.700;2023-02-28T16:07:26;5.60;82.40
17152;DHT22;8691;50.828;4.700;2023-02-28T16:09:54;5.50;82.10
17152;DHT22;8691;50.828;4.700;2023-02-28T16:12:20;5.40;82.00
17152;DHT22;8691;50.828;4.700;2023-02-28T16:14:48;5.50;82.10
17152;DHT22;8691;50.828;4.700;2023-02-28T16:17:19;5.30;83.20
17152;DHT22;8691;50.828;4.700;2023-02-28T16:19:44;5.20;84.30
17152;DHT22;8691;50.828;4.700;2023-02-28T16:22:12;5.30;83.90
17152;DHT22;8691;50.828;4.700;2023-02-28T16:24:39;5.30;84.50
17152;DHT22;8691;50.828;4.700;2023-02-28T16:27:05;5.40;85.40
17152;DHT22;8691;50.828;4.700;2023-02-28T16:29:34;5.20;85.20
17152;DHT22;8691;50.828;4.700;2023-02-28T16:31:59;5.10;84.80
17152;DHT22;8691;50.828;4.700;2023-02-28T16:34:25;4.90;84.80
17152;DHT22;8691;50.828;4.700;2023-02-28T16:36:53;4.80;85.00
17152;DHT22;8691;50.828;4.700;2023-02-28T16:39:19;4.70;85.60
17152;DHT22;8691;50.828;4.700;2023-02-28T16:41:50;4.90;86.00
17152;DHT22;8691;50.828;4.700;2023-02-28T16:44:33;4.80;85.90
17152;DHT22;8691;50.828;4.700;2023-02-28T16:47:02;4.70;87.60
17152;DHT22;8691;50.828;4.700;2023-02-28T16:49:28;4.70;87.50
17152;DHT22;8691;50.828;4.700;2023-02-28T16:51:56;4.50;87.60
17152;DHT22;8691;50.828;4.700;2023-02-28T16:54:23;4.50;87.50
17152;DHT22;8691;50.828;4.700;2023-02-28T16:56:50;4.30;88.50
17152;DHT22;8691;50.828;4.700;2023-02-28T16:59:22;4.20;89.60
17152;DHT22;8691;50.828;4.700;2023-02-28T17:01:46;4.20;90.00
17152;DHT22;8691;50.828;4.700;2023-02-28T17:04:14;4.00;90.50
17152;DHT22;8691;50.828;4.700;2023-02-28T17:06:41;4.00;90.50
17152;DHT22;8691;50.828;4.700;2023-02-28T17:09:09;3.90;90.70
17152;DHT22;8691;50.828;4.700;2023-02-28T17:11:34;3.90;90.90
17152;DHT22;8691;50.828;4.700;2023-02-28T17:14:01;3.80;91.10
17152;DHT22;8691;50.828;4.700;2023-02-28T17:16:29;3.60;91.30
17152;DHT22;8691;50.828;4.700;2023-02-28T17:18:57;3.50;91.70
17152;DHT22;8691;50.828;4.700;2023-02-28T17:21:22;3.40;92.10
17152;DHT22;8691;50.828;4.700;2023-02-28T17:23:49;3.50;92.20
17152;DHT22;8691;50.828;4.700;2023-02-28T17:26:17;3.20;92.70
17152;DHT22;8691;50.828;4.700;2023-02-28T17:28:49;3.20;92.70
17152;DHT22;8691;50.828;4.700;2023-02-28T17:31:16;3.10;93.10
17152;DHT22;8691;50.828;4.700;2023-02-28T17:33:43;3.10;93.80
17152;DHT22;8691;50.828;4.700;2023-02-28T17:36:14;3.00;93.80
17152;DHT22;8691;50.828;4.700;2023-02-28T17:38:38;2.90;94.20
17152;DHT22;8691;50.828;4.700;2023-02-28T17:41:05;2.90;94.20